createdAt,value
2022-09-14T00:01:23.658Z,3.47
2022-09-14T00:03:47.764Z,3.52
2022-09-14T00:06:16.085Z,3.70
2022-09-14T00:08:43.625Z,3.69
2022-09-14T00:11:13.463Z,3.56
2022-09-14T00:13:44.906Z,3.93
2022-09-14T00:16:16.305Z,3.61
2022-09-14T00:18:43.139Z,3.47
2022-09-14T00:21:11.489Z,3.70
2022-09-14T00:23:40.347Z,3.46
2022-09-14T00:26:12.211Z,3.81
2022-09-14T00:28:41.736Z,3.48
2022-09-14T00:31:09.295Z,3.44
2022-09-14T00:33:36.243Z,3.89
2022-09-14T00:36:08.330Z,3.77
2022-09-14T00:38:35.478Z,3.53
2022-09-14T00:41:04.716Z,3.74
2022-09-14T00:43:31.547Z,3.76
2022-09-14T00:46:01.454Z,3.74
2022-09-14T00:48:30.306Z,3.53
2022-09-14T00:50:57.656Z,3.50
2022-09-14T00:53:24.659Z,3.47
2022-09-14T00:55:51.255Z,3.60
2022-09-14T00:58:18.087Z,3.82
2022-09-14T01:00:44.627Z,3.51
2022-09-14T01:03:11.227Z,3.84
2022-09-14T01:06:16.889Z,3.69
2022-09-14T01:08:43.365Z,3.69
2022-09-14T01:11:34.973Z,3.74
2022-09-14T01:14:22.911Z,3.60
2022-09-14T01:17:11.848Z,3.50
2022-09-14T01:20:08.463Z,3.66
2022-09-14T01:22:44.683Z,3.48
2022-09-14T01:25:31.976Z,3.59
2022-09-14T01:28:08.151Z,3.69
2022-09-14T01:30:41.968Z,3.71
2022-09-14T01:33:21.423Z,3.65
2022-09-14T01:35:56.160Z,3.81
2022-09-14T01:38:34.416Z,3.71
2022-09-14T01:41:06.887Z,3.85
2022-09-14T01:43:39.718Z,3.77
2022-09-14T01:46:15.312Z,3.60
2022-09-14T01:48:47.623Z,3.75
2022-09-14T01:51:22.760Z,3.87
2022-09-14T01:54:21.675Z,3.71
2022-09-14T01:56:55.076Z,3.73
2022-09-14T01:59:33.190Z,3.61
2022-09-14T02:02:11.102Z,3.75
2022-09-14T02:04:47.219Z,3.85
2022-09-14T02:07:15.693Z,3.60
2022-09-14T02:09:43.097Z,3.70
2022-09-14T02:12:09.759Z,3.55
2022-09-14T02:14:36.431Z,3.62
2022-09-14T02:17:03.372Z,3.64
2022-09-14T02:19:37.185Z,3.72
2022-09-14T02:22:04.070Z,4.06
2022-09-14T02:24:30.829Z,3.56
2022-09-14T02:26:59.594Z,3.62
2022-09-14T02:29:26.190Z,3.69
2022-09-14T02:32:22.705Z,3.74
2022-09-14T02:35:02.975Z,3.66
2022-09-14T02:37:57.205Z,3.74
2022-09-14T02:40:42.506Z,3.69
2022-09-14T02:43:11.979Z,3.88
2022-09-14T02:45:53.663Z,3.68
2022-09-14T02:48:47.517Z,3.99
2022-09-14T02:51:13.948Z,3.99
2022-09-14T02:53:48.744Z,3.61
2022-09-14T02:56:18.540Z,3.47
2022-09-14T02:58:45.680Z,3.76
2022-09-14T03:01:18.965Z,3.73
2022-09-14T03:03:45.528Z,3.61
2022-09-14T03:06:12.029Z,3.69
2022-09-14T03:08:40.291Z,3.51
2022-09-14T03:11:07.150Z,3.75
2022-09-14T03:13:34.835Z,3.77
2022-09-14T03:16:09.666Z,3.37
2022-09-14T03:18:37.227Z,3.66
2022-09-14T03:21:09.926Z,3.81
2022-09-14T03:23:42.810Z,3.88
2022-09-14T03:26:12.215Z,3.84
2022-09-14T03:28:39.683Z,3.93
2022-09-14T03:31:09.085Z,3.89
2022-09-14T03:33:36.054Z,3.46
2022-09-14T03:36:17.524Z,3.99
2022-09-14T03:38:49.682Z,3.78
2022-09-14T03:41:16.865Z,3.78
2022-09-14T03:43:44.087Z,3.65
2022-09-14T03:46:16.691Z,3.75
2022-09-14T03:48:43.470Z,4.23
2022-09-14T03:51:12.177Z,3.71
2022-09-14T03:53:38.954Z,3.83
2022-09-14T03:56:10.581Z,3.89
2022-09-14T03:58:37.468Z,3.86
2022-09-14T04:01:09.766Z,4.02
2022-09-14T04:03:37.078Z,3.90
2022-09-14T04:06:04.918Z,3.77
2022-09-14T04:08:33.873Z,3.78
2022-09-14T04:11:00.972Z,3.76
2022-09-14T04:13:27.540Z,3.90
2022-09-14T04:15:59.366Z,3.86
2022-09-14T04:18:26.910Z,3.85
2022-09-14T04:20:58.882Z,3.89
2022-09-14T04:23:25.607Z,3.80
2022-09-14T04:25:53.069Z,3.73
2022-09-14T04:28:21.140Z,4.53
2022-09-14T04:31:01.948Z,4.29
2022-09-14T04:33:34.682Z,3.84
2022-09-14T04:36:03.617Z,3.91
2022-09-14T04:38:32.159Z,3.84
2022-09-14T04:40:59.595Z,3.99
2022-09-14T04:43:26.851Z,4.33
2022-09-14T04:45:53.587Z,3.81
2022-09-14T04:48:20.570Z,3.91
2022-09-14T04:50:47.051Z,3.85
2022-09-14T04:53:13.616Z,4.06
2022-09-14T04:55:40.189Z,4.10
2022-09-14T04:58:06.796Z,4.13
2022-09-14T05:00:35.054Z,4.31
2022-09-14T05:03:03.257Z,4.39
2022-09-14T05:05:29.977Z,4.43
2022-09-14T05:07:56.493Z,3.87
2022-09-14T05:10:23.078Z,3.59
2022-09-14T05:12:49.579Z,3.89
2022-09-14T05:15:16.193Z,4.10
2022-09-14T05:17:42.693Z,4.10
2022-09-14T05:20:09.685Z,4.15
2022-09-14T05:22:36.321Z,4.08
2022-09-14T05:25:02.983Z,3.78
2022-09-14T05:27:29.577Z,4.20
2022-09-14T05:29:56.247Z,3.92
2022-09-14T05:32:22.835Z,3.83
2022-09-14T05:34:49.502Z,3.78
2022-09-14T05:37:16.049Z,4.16
2022-09-14T05:39:42.642Z,3.84
2022-09-14T05:42:09.416Z,3.78
2022-09-14T05:44:36.011Z,3.78
2022-09-14T05:47:02.557Z,3.80
2022-09-14T05:49:29.219Z,3.91
2022-09-14T05:51:55.807Z,3.74
2022-09-14T05:54:22.329Z,3.59
2022-09-14T05:56:49.028Z,3.99
2022-09-14T05:59:15.849Z,4.10
2022-09-14T06:01:42.555Z,3.72
2022-09-14T06:04:11.211Z,3.68
2022-09-14T06:06:38.096Z,3.53
2022-09-14T06:09:04.940Z,3.61
2022-09-14T06:11:33.876Z,3.98
2022-09-14T06:14:00.944Z,3.70
2022-09-14T06:16:29.112Z,3.49
2022-09-14T06:18:58.263Z,3.46
2022-09-14T06:21:29.115Z,3.86
2022-09-14T06:23:55.749Z,3.58
2022-09-14T06:26:22.326Z,3.30
2022-09-14T06:28:49.080Z,3.27
2022-09-14T06:31:16.687Z,3.41
2022-09-14T06:33:47.741Z,3.48
2022-09-14T06:36:18.134Z,3.44
2022-09-14T06:38:45.340Z,3.56
2022-09-14T06:41:14.860Z,3.52
2022-09-14T06:43:42.569Z,3.90
2022-09-14T06:46:18.333Z,3.74
2022-09-14T06:48:49.588Z,3.83
2022-09-14T06:51:24.827Z,4.61
2022-09-14T06:53:52.925Z,4.82
2022-09-14T06:56:20.435Z,6.50
2022-09-14T06:58:47.512Z,5.82
2022-09-14T07:01:15.973Z,4.22
2022-09-14T07:03:44.036Z,4.24
2022-09-14T07:06:14.503Z,3.95
2022-09-14T07:08:42.026Z,3.96
2022-09-14T07:11:10.836Z,4.14
2022-09-14T07:13:37.384Z,3.76
2022-09-14T07:16:04.637Z,3.99
2022-09-14T07:18:31.382Z,3.73
2022-09-14T07:21:12.446Z,3.63
2022-09-14T07:23:41.431Z,3.36
2022-09-14T07:26:13.318Z,3.31
2022-09-14T07:28:41.067Z,3.43
2022-09-14T07:31:20.946Z,3.46
2022-09-14T07:33:48.623Z,3.08
2022-09-14T07:36:15.516Z,3.40
2022-09-14T07:38:52.144Z,3.13
2022-09-14T07:41:28.417Z,2.88
2022-09-14T07:43:57.657Z,2.92
2022-09-14T07:46:24.439Z,3.75
2022-09-14T07:48:57.024Z,3.12
2022-09-14T07:51:24.712Z,3.08
2022-09-14T07:53:51.299Z,3.38
2022-09-14T07:56:17.938Z,3.22
2022-09-14T07:58:44.887Z,3.47
2022-09-14T08:01:17.265Z,3.72
2022-09-14T08:03:46.172Z,3.83
2022-09-14T08:06:17.567Z,3.73
2022-09-14T08:08:46.677Z,3.96
2022-09-14T08:11:26.108Z,3.85
2022-09-14T08:13:55.953Z,4.13
2022-09-14T08:16:24.637Z,4.17
2022-09-14T08:18:57.120Z,4.05
2022-09-14T08:21:25.444Z,4.46
2022-09-14T08:23:52.016Z,3.88
2022-09-14T08:26:22.053Z,3.66
2022-09-14T08:28:50.261Z,3.50
2022-09-14T08:31:19.750Z,3.33
2022-09-14T08:33:53.291Z,3.36
2022-09-14T08:36:22.465Z,3.37
2022-09-14T08:38:50.012Z,3.07
2022-09-14T08:41:43.356Z,3.86
2022-09-14T08:44:09.763Z,3.02
2022-09-14T08:46:48.144Z,3.28
2022-09-14T08:49:27.747Z,3.07
2022-09-14T08:51:56.098Z,3.11
2022-09-14T08:54:23.098Z,2.94
2022-09-14T08:57:03.914Z,3.00
2022-09-14T09:00:08.075Z,2.71
2022-09-14T09:03:18.288Z,3.15
2022-09-14T09:06:11.851Z,2.78
2022-09-14T09:08:58.703Z,2.86
2022-09-14T09:11:37.175Z,3.46
2022-09-14T09:14:18.536Z,3.22
2022-09-14T09:16:50.446Z,3.31
2022-09-14T09:19:28.469Z,3.15
2022-09-14T09:21:57.109Z,3.88
2022-09-14T09:24:43.057Z,3.96
2022-09-14T09:27:11.831Z,4.11
2022-09-14T09:29:38.299Z,3.33
2022-09-14T09:32:10.516Z,3.35
2022-09-14T09:34:36.974Z,3.40
2022-09-14T09:37:04.281Z,3.42
2022-09-14T09:39:31.803Z,3.19
2022-09-14T09:42:12.059Z,3.41
2022-09-14T09:45:02.456Z,4.40
2022-09-14T09:47:36.024Z,3.63
2022-09-14T09:50:14.429Z,3.57
2022-09-14T09:52:57.552Z,4.86
2022-09-14T09:55:31.899Z,3.25
2022-09-14T09:58:23.124Z,3.41
2022-09-14T10:01:20.277Z,3.18
2022-09-14T10:04:05.554Z,2.85
2022-09-14T10:06:42.145Z,3.19
2022-09-14T10:09:23.762Z,3.00
2022-09-14T10:12:00.236Z,2.84
2022-09-14T10:14:33.388Z,2.78
2022-09-14T10:17:22.943Z,3.11
2022-09-14T10:19:52.234Z,3.18
2022-09-14T10:22:29.667Z,3.53
2022-09-14T10:25:03.554Z,3.32
2022-09-14T10:27:45.221Z,2.82
2022-09-14T10:30:20.999Z,2.71
2022-09-14T10:33:06.200Z,2.84
2022-09-14T10:35:53.991Z,2.94
2022-09-14T10:38:31.151Z,3.13
2022-09-14T10:41:14.666Z,3.17
2022-09-14T10:44:10.869Z,3.06
2022-09-14T10:46:56.056Z,2.99
2022-09-14T10:49:30.030Z,3.65
2022-09-14T10:52:11.586Z,3.41
2022-09-14T10:54:46.982Z,3.48
2022-09-14T10:57:28.601Z,2.94
2022-09-14T11:00:11.017Z,3.11
2022-09-14T11:03:04.801Z,3.10
2022-09-14T11:05:38.808Z,3.60
2022-09-14T11:08:18.729Z,3.71
2022-09-14T11:11:03.614Z,3.13
2022-09-14T11:13:37.234Z,3.25
2022-09-14T11:16:26.721Z,3.26
2022-09-14T11:19:11.874Z,3.42
2022-09-14T11:21:56.860Z,3.09
2022-09-14T11:25:01.283Z,3.28
2022-09-14T11:27:43.487Z,3.29
2022-09-14T11:30:19.053Z,2.75
2022-09-14T11:32:59.596Z,3.15
2022-09-14T11:35:45.386Z,4.06
2022-09-14T11:38:21.590Z,2.84
2022-09-14T11:41:08.488Z,3.22
2022-09-14T11:43:52.590Z,2.78
2022-09-14T11:46:38.365Z,2.86
2022-09-14T11:49:27.254Z,2.98
2022-09-14T11:51:59.444Z,2.71
2022-09-14T11:54:26.095Z,2.72
2022-09-14T11:57:01.451Z,2.97
2022-09-14T11:59:58.697Z,2.73
2022-09-14T12:02:25.295Z,2.89
2022-09-14T12:05:23.620Z,3.10
2022-09-14T12:08:24.702Z,3.22
2022-09-14T12:11:09.927Z,2.72
2022-09-14T12:13:39.531Z,2.80
2022-09-14T12:16:10.057Z,2.79
2022-09-14T12:18:39.079Z,2.88
2022-09-14T12:21:20.331Z,3.02
2022-09-14T12:23:50.263Z,3.11
2022-09-14T12:26:19.875Z,2.87
2022-09-14T12:28:53.571Z,2.82
2022-09-14T12:31:44.955Z,2.83
2022-09-14T12:34:22.202Z,2.86
2022-09-14T12:36:52.228Z,2.97
2022-09-14T12:39:28.165Z,2.75
2022-09-14T12:41:54.755Z,3.18
2022-09-14T12:44:39.509Z,3.06
2022-09-14T12:47:24.388Z,2.93
2022-09-14T12:49:56.463Z,3.13
2022-09-14T12:52:32.244Z,3.08
2022-09-14T12:55:30.771Z,2.91
2022-09-14T12:58:00.461Z,2.94
2022-09-14T13:00:57.394Z,2.91
2022-09-14T13:03:47.650Z,3.02
2022-09-14T13:06:15.916Z,3.31
2022-09-14T13:08:49.110Z,3.06
2022-09-14T13:11:40.540Z,2.95
2022-09-14T13:14:19.101Z,2.96
2022-09-14T13:16:51.610Z,2.83
2022-09-14T13:19:24.995Z,2.74
2022-09-14T13:21:55.282Z,2.73
2022-09-14T13:24:51.751Z,2.96
2022-09-14T13:27:32.700Z,3.21
2022-09-14T13:30:07.554Z,2.90
2022-09-14T13:32:41.865Z,2.95
2022-09-14T13:35:24.680Z,2.96
2022-09-14T13:37:51.899Z,3.05
2022-09-14T13:40:27.764Z,3.37
2022-09-14T13:42:56.803Z,3.01
2022-09-14T13:45:25.449Z,3.05
2022-09-14T13:47:54.696Z,3.00
2022-09-14T13:50:25.682Z,2.74
2022-09-14T13:53:04.284Z,2.63
2022-09-14T13:55:34.148Z,2.83
2022-09-14T13:58:20.782Z,3.12
2022-09-14T14:01:03.998Z,2.70
2022-09-14T14:03:38.667Z,2.78
2022-09-14T14:06:27.146Z,3.33
2022-09-14T14:09:01.116Z,2.77
2022-09-14T14:11:34.698Z,2.86
2022-09-14T14:14:15.546Z,3.05
2022-09-14T14:17:22.286Z,2.89
2022-09-14T14:19:51.750Z,2.81
2022-09-14T14:22:24.726Z,2.59
2022-09-14T14:27:47.815Z,3.05
2022-09-14T14:30:18.254Z,2.76
2022-09-14T14:32:52.643Z,2.88
2022-09-14T14:35:23.466Z,2.55
2022-09-14T14:37:51.471Z,2.84
2022-09-14T14:40:21.068Z,3.25
2022-09-14T14:42:54.478Z,2.95
2022-09-14T14:45:27.673Z,2.84
2022-09-14T14:48:10.680Z,3.05
2022-09-14T14:50:40.524Z,2.77
2022-09-14T14:53:07.534Z,2.78
2022-09-14T14:55:39.069Z,2.88
2022-09-14T14:58:07.843Z,3.05
2022-09-14T15:00:36.979Z,2.90
2022-09-14T15:03:17.027Z,2.80
2022-09-14T15:05:51.232Z,3.01
2022-09-14T15:08:21.053Z,2.81
2022-09-14T15:10:57.196Z,3.01
2022-09-14T15:13:29.349Z,3.05
2022-09-14T15:15:57.931Z,3.16
2022-09-14T15:18:24.867Z,2.75
2022-09-14T15:20:51.481Z,2.68
2022-09-14T15:23:18.213Z,2.74
2022-09-14T15:25:44.947Z,2.96
2022-09-14T15:28:12.010Z,3.02
2022-09-14T15:30:39.271Z,2.98
2022-09-14T15:33:10.222Z,2.84
2022-09-14T15:35:37.474Z,2.77
2022-09-14T15:38:04.192Z,2.95
2022-09-14T15:40:31.211Z,2.97
2022-09-14T15:43:00.373Z,2.92
2022-09-14T15:45:27.234Z,2.81
2022-09-14T15:47:54.046Z,2.57
2022-09-14T15:50:20.654Z,2.82
2022-09-14T15:52:47.264Z,2.96
2022-09-14T15:55:13.917Z,2.83
2022-09-14T15:57:40.550Z,2.82
2022-09-14T16:00:11.093Z,2.99
2022-09-14T16:02:37.759Z,2.64
2022-09-14T16:05:04.681Z,2.92
2022-09-14T16:07:33.708Z,3.97
2022-09-14T16:10:02.500Z,3.89
2022-09-14T16:12:29.101Z,3.19
2022-09-14T16:14:55.768Z,3.26
2022-09-14T16:17:22.492Z,3.08
2022-09-14T16:19:49.380Z,2.97
2022-09-14T16:22:16.093Z,2.99
2022-09-14T16:24:42.802Z,2.81
2022-09-14T16:27:09.487Z,2.96
2022-09-14T16:29:36.245Z,3.20
2022-09-14T16:32:03.042Z,3.12
2022-09-14T16:34:30.034Z,2.92
2022-09-14T16:36:56.825Z,3.05
2022-09-14T16:39:26.448Z,3.37
2022-09-14T16:41:53.574Z,3.48
2022-09-14T16:44:23.091Z,3.56
2022-09-14T16:46:51.204Z,3.54
2022-09-14T16:49:21.357Z,3.47
2022-09-14T16:51:51.566Z,3.74
2022-09-14T16:54:20.594Z,3.64
2022-09-14T16:56:48.064Z,3.42
2022-09-14T16:59:14.811Z,3.65
2022-09-14T17:01:45.050Z,3.52
2022-09-14T17:04:15.559Z,3.40
2022-09-14T17:06:44.451Z,3.54
2022-09-14T17:09:19.234Z,3.36
2022-09-14T17:11:46.118Z,3.46
2022-09-14T17:14:16.871Z,3.18
2022-09-14T17:16:44.478Z,3.39
2022-09-14T17:19:12.553Z,3.61
2022-09-14T17:21:43.667Z,3.58
2022-09-14T17:24:11.992Z,3.57
2022-09-14T17:26:38.780Z,3.33
2022-09-14T17:29:06.685Z,3.57
2022-09-14T17:31:36.785Z,3.64
2022-09-14T17:34:10.789Z,3.33
2022-09-14T17:36:40.033Z,3.52
2022-09-14T17:39:11.551Z,3.87
2022-09-14T17:41:42.161Z,3.70
2022-09-14T17:44:13.203Z,3.64
2022-09-14T17:46:53.079Z,3.97
2022-09-14T17:49:21.927Z,3.73
2022-09-14T17:51:51.748Z,3.78
2022-09-14T17:54:20.027Z,4.02
2022-09-14T17:56:47.462Z,3.99
2022-09-14T17:59:20.595Z,3.71
2022-09-14T18:01:48.991Z,3.61
2022-09-14T18:04:16.535Z,3.84
2022-09-14T18:06:51.205Z,3.52
2022-09-14T18:09:21.233Z,3.69
2022-09-14T18:11:52.264Z,3.74
2022-09-14T18:14:30.133Z,3.59
2022-09-14T18:16:57.413Z,3.65
2022-09-14T18:19:27.336Z,3.46
2022-09-14T18:21:54.022Z,2.62
2022-09-14T18:24:23.844Z,2.39
2022-09-14T18:26:50.714Z,2.38
2022-09-14T18:29:23.442Z,2.37
2022-09-14T18:31:56.665Z,2.23
2022-09-14T18:34:25.553Z,1.92
2022-09-14T18:36:55.317Z,2.17
2022-09-14T18:39:23.565Z,2.05
2022-09-14T18:41:52.238Z,2.10
2022-09-14T18:44:19.417Z,2.55
2022-09-14T18:46:48.251Z,2.42
2022-09-14T18:49:32.170Z,2.22
2022-09-14T18:51:59.417Z,1.86
2022-09-14T18:54:29.260Z,1.75
2022-09-14T18:57:03.685Z,1.92
2022-09-14T18:59:30.241Z,2.15
2022-09-14T19:02:00.265Z,1.74
2022-09-14T19:04:37.534Z,1.88
2022-09-14T19:07:04.909Z,1.87
2022-09-14T19:09:31.968Z,1.90
2022-09-14T19:11:58.813Z,2.32
2022-09-14T19:14:25.379Z,1.91
2022-09-14T19:16:56.375Z,2.47
2022-09-14T19:19:23.074Z,1.88
2022-09-14T19:21:49.681Z,2.14
2022-09-14T19:24:17.414Z,2.32
2022-09-14T19:26:50.174Z,1.97
2022-09-14T19:29:19.917Z,1.73
2022-09-14T19:31:48.395Z,1.67
2022-09-14T19:34:14.938Z,1.62
2022-09-14T19:36:41.450Z,1.77
2022-09-14T19:39:09.029Z,1.59
2022-09-14T19:41:36.785Z,1.62
2022-09-14T19:44:04.971Z,2.29
2022-09-14T19:46:31.714Z,2.41
2022-09-14T19:48:59.169Z,2.23
2022-09-14T19:51:29.359Z,2.38
2022-09-14T19:53:58.889Z,2.44
2022-09-14T19:56:28.700Z,2.37
2022-09-14T19:58:58.129Z,2.14
2022-09-14T20:01:28.526Z,2.04
2022-09-14T20:03:55.979Z,1.87
2022-09-14T20:06:26.780Z,1.91
2022-09-14T20:08:57.048Z,1.94
2022-09-14T20:11:26.367Z,1.94
2022-09-14T20:13:54.333Z,2.06
2022-09-14T20:16:24.393Z,2.11
2022-09-14T20:18:52.100Z,2.06
2022-09-14T20:21:24.536Z,1.98
2022-09-14T20:24:15.748Z,2.13
2022-09-14T20:26:45.859Z,2.23
2022-09-14T20:29:17.378Z,2.10
2022-09-14T20:31:46.506Z,2.11
2022-09-14T20:34:14.947Z,1.99
2022-09-14T20:36:42.126Z,2.14
2022-09-14T20:39:10.527Z,1.90
2022-09-14T20:41:37.604Z,1.72
2022-09-14T20:44:05.778Z,1.89
2022-09-14T20:46:39.991Z,1.80
2022-09-14T20:49:16.157Z,1.90
2022-09-14T20:51:43.351Z,1.85
2022-09-14T20:54:12.701Z,1.98
2022-09-14T20:56:40.231Z,2.01
2022-09-14T20:59:14.375Z,1.90
2022-09-14T21:01:43.739Z,2.17
2022-09-14T21:04:13.792Z,2.14
2022-09-14T21:06:46.997Z,2.18
2022-09-14T21:09:15.690Z,2.27
2022-09-14T21:11:43.059Z,2.24
2022-09-14T21:14:09.835Z,2.27
2022-09-14T21:16:39.984Z,2.13
2022-09-14T21:19:15.197Z,2.33
2022-09-14T21:21:42.981Z,1.79
2022-09-14T21:24:13.449Z,1.77
2022-09-14T21:26:42.822Z,1.83
2022-09-14T21:29:14.591Z,1.74
2022-09-14T21:31:41.227Z,1.31
2022-09-14T21:34:08.789Z,1.21
2022-09-14T21:36:38.492Z,1.41
2022-09-14T21:39:10.853Z,1.60
2022-09-14T21:41:39.734Z,1.47
2022-09-14T21:44:06.550Z,1.60
2022-09-14T21:46:33.736Z,1.62
2022-09-14T21:49:00.469Z,1.24
2022-09-14T21:51:30.241Z,1.42
2022-09-14T21:54:08.248Z,1.27
2022-09-14T21:56:38.310Z,1.37
2022-09-14T21:59:08.588Z,1.51
2022-09-14T22:01:35.631Z,1.40
2022-09-14T22:04:02.985Z,1.36
2022-09-14T22:06:31.430Z,1.35
2022-09-14T22:08:59.554Z,1.44
2022-09-14T22:11:31.826Z,1.54
2022-09-14T22:14:13.816Z,1.44
2022-09-14T22:16:41.283Z,1.52
2022-09-14T22:19:16.841Z,1.77
2022-09-14T22:21:44.007Z,1.50
2022-09-14T22:24:14.483Z,1.49
2022-09-14T22:26:42.084Z,1.83
2022-09-14T22:29:10.248Z,1.58
2022-09-14T22:31:42.155Z,1.50
2022-09-14T22:34:09.134Z,1.70
2022-09-14T22:36:36.224Z,1.92
2022-09-14T22:39:04.635Z,1.61
2022-09-14T22:41:31.422Z,1.79
2022-09-14T22:43:58.509Z,1.71
2022-09-14T22:46:25.695Z,1.59
2022-09-14T22:48:52.884Z,1.66
2022-09-14T22:51:24.930Z,1.57
2022-09-14T22:53:52.616Z,1.40
2022-09-14T22:56:29.081Z,1.43
2022-09-14T22:58:56.297Z,1.42
2022-09-14T23:01:26.115Z,1.30
2022-09-14T23:04:05.623Z,1.35
2022-09-14T23:06:35.779Z,1.54
2022-09-14T23:09:03.598Z,1.19
2022-09-14T23:11:31.046Z,1.13
2022-09-14T23:13:57.715Z,1.44
2022-09-14T23:16:27.403Z,1.28
2022-09-14T23:18:56.931Z,1.18
2022-09-14T23:21:24.260Z,1.17
2022-09-14T23:23:55.178Z,1.25
2022-09-14T23:26:22.885Z,1.28
2022-09-14T23:29:00.049Z,1.39
2022-09-14T23:31:29.010Z,1.30
2022-09-14T23:33:59.912Z,1.03
2022-09-14T23:36:30.521Z,1.10
2022-09-14T23:38:59.676Z,1.17
2022-09-14T23:41:29.484Z,1.05
2022-09-14T23:43:56.317Z,1.22
2022-09-14T23:46:25.395Z,1.22
2022-09-14T23:48:52.269Z,1.27
2022-09-14T23:51:26.860Z,1.09
2022-09-14T23:53:53.813Z,1.25
2022-09-14T23:56:23.149Z,1.19
2022-09-14T23:58:50.202Z,1.34
